createdAt,value
2018-02-16T00:00:19.256Z,116.10
2018-02-16T00:02:47.133Z,92.10
2018-02-16T00:05:14.754Z,69.73
2018-02-16T00:07:42.382Z,56.73
2018-02-16T00:10:09.942Z,42.70
2018-02-16T00:12:37.742Z,45.87
2018-02-16T00:15:05.415Z,50.37
2018-02-16T00:17:32.969Z,66.00
2018-02-16T00:20:00.975Z,44.22
2018-02-16T00:22:28.554Z,41.50
2018-02-16T00:24:56.176Z,46.70
2018-02-16T00:27:23.775Z,53.20
2018-02-16T00:29:51.358Z,68.47
2018-02-16T00:32:18.886Z,90.70
2018-02-16T00:34:46.463Z,53.47
2018-02-16T00:37:14.038Z,50.00
2018-02-16T00:39:41.911Z,57.73
2018-02-16T00:42:09.469Z,61.70
2018-02-16T00:44:36.998Z,51.40
2018-02-16T00:47:04.547Z,44.27
2018-02-16T00:49:32.105Z,49.07
2018-02-16T00:51:59.650Z,52.13
2018-02-16T00:54:27.228Z,68.53
2018-02-16T00:56:54.916Z,75.60
2018-02-16T00:59:22.709Z,66.80
2018-02-16T01:01:50.315Z,75.20
2018-02-16T01:04:17.908Z,55.03
2018-02-16T01:06:45.514Z,72.57
2018-02-16T01:09:13.072Z,69.60
2018-02-16T01:11:40.649Z,60.07
2018-02-16T01:14:08.181Z,52.63
2018-02-16T01:16:35.699Z,82.12
2018-02-16T01:19:03.281Z,61.57
2018-02-16T01:21:30.982Z,114.50
2018-02-16T01:23:58.533Z,58.90
2018-02-16T01:26:26.060Z,66.70
2018-02-16T01:28:56.811Z,77.43
2018-02-16T01:31:24.900Z,53.17
2018-02-16T01:33:52.612Z,53.47
2018-02-16T01:36:20.443Z,64.23
2018-02-16T01:38:48.054Z,66.10
2018-02-16T01:41:15.704Z,63.90
2018-02-16T01:43:43.353Z,46.40
2018-02-16T01:46:11.023Z,43.67
2018-02-16T01:48:38.579Z,50.40
2018-02-16T01:51:06.130Z,77.27
2018-02-16T01:53:33.658Z,52.97
2018-02-16T01:56:01.216Z,74.83
2018-02-16T01:58:28.762Z,79.20
2018-02-16T02:00:56.310Z,50.10
2018-02-16T02:03:23.937Z,50.37
2018-02-16T02:05:51.600Z,55.15
2018-02-16T02:08:19.122Z,50.77
2018-02-16T02:10:46.697Z,73.37
2018-02-16T02:13:14.555Z,70.40
2018-02-16T02:15:42.102Z,73.70
2018-02-16T02:18:09.879Z,67.53
2018-02-16T02:20:37.834Z,50.67
2018-02-16T02:23:05.803Z,73.60
2018-02-16T02:25:35.639Z,44.13
2018-02-16T02:28:06.064Z,65.57
2018-02-16T02:30:33.891Z,44.05
2018-02-16T02:33:01.673Z,52.43
2018-02-16T02:35:29.249Z,80.93
2018-02-16T02:37:56.830Z,48.40
2018-02-16T02:40:24.352Z,59.67
2018-02-16T02:42:51.957Z,56.58
2018-02-16T02:45:19.538Z,186.93
2018-02-16T02:47:47.086Z,50.30
2018-02-16T02:50:14.641Z,43.37
2018-02-16T02:52:42.190Z,45.25
2018-02-16T02:55:09.783Z,40.33
2018-02-16T02:57:37.318Z,41.33
2018-02-16T03:00:04.946Z,50.15
2018-02-16T03:02:32.531Z,40.50
2018-02-16T03:05:00.098Z,43.37
2018-02-16T03:07:27.674Z,55.63
2018-02-16T03:09:55.276Z,51.83
2018-02-16T03:12:22.831Z,57.50
2018-02-16T03:14:50.353Z,42.20
2018-02-16T03:17:18.762Z,42.47
2018-02-16T03:19:46.791Z,52.87
2018-02-16T03:22:14.949Z,56.63
2018-02-16T03:24:42.918Z,55.25
2018-02-16T03:27:11.154Z,51.23
2018-02-16T03:29:38.854Z,58.40
2018-02-16T03:32:06.897Z,86.73
2018-02-16T03:34:34.751Z,48.33
2018-02-16T03:37:02.501Z,46.80
2018-02-16T03:39:30.233Z,94.80
2018-02-16T03:41:58.089Z,69.80
2018-02-16T03:44:25.661Z,102.37
2018-02-16T03:46:53.383Z,42.03
2018-02-16T03:49:21.243Z,46.70
2018-02-16T03:51:49.057Z,40.33
2018-02-16T03:54:17.070Z,64.28
2018-02-16T03:56:44.680Z,46.15
2018-02-16T03:59:12.522Z,43.90
2018-02-16T04:01:40.403Z,55.90
2018-02-16T04:04:08.331Z,52.07
2018-02-16T04:06:36.180Z,47.00
2018-02-16T04:09:05.161Z,57.08
2018-02-16T04:11:32.894Z,97.67
2018-02-16T04:14:00.556Z,86.82
2018-02-16T04:16:28.135Z,40.93
2018-02-16T04:18:55.667Z,46.93
2018-02-16T04:21:23.218Z,44.80
2018-02-16T04:23:50.757Z,56.90
2018-02-16T04:26:18.349Z,60.47
2018-02-16T04:28:45.906Z,70.60
2018-02-16T04:31:13.471Z,42.07
2018-02-16T04:33:41.054Z,53.37
2018-02-16T04:36:08.606Z,67.85
2018-02-16T04:38:36.181Z,48.40
2018-02-16T04:41:03.711Z,53.20
2018-02-16T04:43:31.266Z,68.67
2018-02-16T04:45:58.826Z,62.33
2018-02-16T04:48:26.419Z,74.03
2018-02-16T04:50:54.071Z,52.80
2018-02-16T04:53:21.677Z,61.88
2018-02-16T04:55:49.286Z,51.07
2018-02-16T04:58:16.826Z,64.10
2018-02-16T05:00:44.678Z,44.93
2018-02-16T05:03:12.206Z,53.00
2018-02-16T05:05:40.006Z,48.68
2018-02-16T05:08:07.696Z,81.43
2018-02-16T05:10:35.483Z,57.63
2018-02-16T05:13:03.019Z,61.97
2018-02-16T05:15:30.593Z,75.37
2018-02-16T05:17:58.152Z,56.20
2018-02-16T05:20:25.697Z,86.40
2018-02-16T05:22:53.274Z,44.47
2018-02-16T05:25:20.828Z,61.58
2018-02-16T05:27:48.430Z,65.77
2018-02-16T05:30:15.959Z,59.83
2018-02-16T05:32:43.559Z,53.17
2018-02-16T05:35:11.140Z,57.10
2018-02-16T05:37:38.669Z,59.60
2018-02-16T05:40:06.259Z,52.37
2018-02-16T05:42:33.843Z,66.40
2018-02-16T05:45:01.390Z,72.40
2018-02-16T05:47:28.920Z,56.37
2018-02-16T05:49:56.478Z,56.80
2018-02-16T05:52:24.043Z,99.53
2018-02-16T05:54:51.629Z,85.47
2018-02-16T05:57:19.176Z,98.40
2018-02-16T05:59:46.710Z,73.73
2018-02-16T06:02:14.292Z,82.65
2018-02-16T06:04:41.840Z,67.97
2018-02-16T06:07:09.513Z,73.80
2018-02-16T06:09:37.195Z,85.00
2018-02-16T06:12:05.150Z,102.20
2018-02-16T06:14:32.700Z,71.80
2018-02-16T06:17:00.276Z,61.93
2018-02-16T06:19:27.831Z,67.77
2018-02-16T06:21:55.447Z,73.83
2018-02-16T06:24:22.979Z,102.60
2018-02-16T06:26:50.575Z,87.33
2018-02-16T06:29:18.115Z,116.43
2018-02-16T06:31:45.661Z,78.77
2018-02-16T06:34:13.319Z,75.67
2018-02-16T06:36:40.961Z,71.03
2018-02-16T06:39:08.550Z,61.13
2018-02-16T06:41:36.272Z,56.67
2018-02-16T06:44:03.874Z,60.10
2018-02-16T06:46:31.770Z,44.43
2018-02-16T06:48:59.676Z,46.73
2018-02-16T06:51:27.430Z,56.27
2018-02-16T06:53:55.183Z,53.73
2018-02-16T06:56:22.812Z,43.90
2018-02-16T06:58:50.866Z,43.83
2018-02-16T07:01:18.907Z,46.28
2018-02-16T07:03:46.950Z,136.37
2018-02-16T07:06:14.622Z,73.10
2018-02-16T07:08:42.247Z,98.47
2018-02-16T07:11:09.899Z,85.12
2018-02-16T07:13:37.495Z,44.30
2018-02-16T07:16:05.331Z,43.58
2018-02-16T07:18:32.975Z,44.50
2018-02-16T07:21:00.558Z,38.87
2018-02-16T07:23:28.111Z,45.33
2018-02-16T07:25:55.663Z,39.57
2018-02-16T07:28:23.191Z,43.60
2018-02-16T07:30:50.745Z,41.33
2018-02-16T07:33:18.288Z,46.58
2018-02-16T07:35:45.845Z,55.77
2018-02-16T07:38:13.369Z,100.03
2018-02-16T07:40:40.926Z,311.13
2018-02-16T07:43:08.516Z,118.80
2018-02-16T07:45:36.133Z,151.40
2018-02-16T07:48:03.713Z,88.63
2018-02-16T07:50:31.316Z,144.15
2018-02-16T07:52:58.864Z,138.20
2018-02-16T07:55:26.439Z,105.03
2018-02-16T07:57:53.987Z,75.63
2018-02-16T08:00:21.613Z,93.27
2018-02-16T08:02:49.151Z,102.30
2018-02-16T08:05:17.327Z,83.53
2018-02-16T08:07:44.920Z,74.10
2018-02-16T08:10:12.799Z,62.08
2018-02-16T08:12:40.586Z,91.22
2018-02-16T08:15:08.883Z,119.43
2018-02-16T08:17:36.478Z,66.60
2018-02-16T08:20:04.067Z,76.83
2018-02-16T08:22:31.733Z,127.50
2018-02-16T08:24:59.419Z,52.67
2018-02-16T08:27:27.069Z,85.67
2018-02-16T08:29:54.923Z,76.93
2018-02-16T08:32:22.523Z,92.47
2018-02-16T08:34:50.393Z,70.37
2018-02-16T08:37:18.158Z,62.73
2018-02-16T08:39:45.824Z,54.57
2018-02-16T08:42:16.226Z,52.25
2018-02-16T08:44:49.904Z,53.30
2018-02-16T08:47:25.211Z,58.47
2018-02-16T08:49:58.119Z,71.13
2018-02-16T08:52:28.842Z,55.03
2018-02-16T08:55:01.694Z,37.67
2018-02-16T08:57:29.702Z,39.33
2018-02-16T08:59:57.252Z,31.20
2018-02-16T09:02:24.850Z,36.93
2018-02-16T09:04:52.658Z,37.83
2018-02-16T09:07:20.304Z,26.43
2018-02-16T09:09:47.856Z,26.85
2018-02-16T09:12:15.509Z,29.27
2018-02-16T09:14:43.383Z,31.17
2018-02-16T09:17:11.014Z,32.13
2018-02-16T09:19:38.544Z,22.80
2018-02-16T09:22:08.391Z,36.97
2018-02-16T09:24:36.123Z,28.13
2018-02-16T09:27:05.873Z,23.93
2018-02-16T09:29:35.623Z,20.00
2018-02-16T09:32:04.159Z,26.40
2018-02-16T09:34:31.730Z,18.70
2018-02-16T09:36:59.730Z,25.43
2018-02-16T09:39:33.133Z,24.07
2018-02-16T09:42:01.362Z,22.40
2018-02-16T09:44:32.538Z,34.80
2018-02-16T09:47:00.290Z,20.17
2018-02-16T09:49:30.192Z,23.93
2018-02-16T09:51:59.522Z,23.50
2018-02-16T09:54:27.544Z,20.33
2018-02-16T09:56:58.294Z,24.87
2018-02-16T09:59:28.304Z,23.40
2018-02-16T10:01:55.956Z,22.70
2018-02-16T10:04:25.073Z,30.63
2018-02-16T10:06:56.025Z,22.97
2018-02-16T10:09:26.107Z,20.33
2018-02-16T10:11:57.588Z,25.97
2018-02-16T10:14:28.161Z,25.73
2018-02-16T10:16:56.384Z,26.10
2018-02-16T10:19:24.341Z,19.30
2018-02-16T10:21:51.948Z,20.37
2018-02-16T10:24:20.046Z,17.43
2018-02-16T10:26:48.247Z,20.57
2018-02-16T10:29:16.480Z,17.37
2018-02-16T10:31:44.381Z,19.03
2018-02-16T10:34:12.052Z,20.60
2018-02-16T10:36:46.035Z,32.15
2018-02-16T10:39:15.955Z,21.43
2018-02-16T10:41:46.008Z,16.80
2018-02-16T10:44:14.308Z,15.77
2018-02-16T10:46:42.321Z,15.55
2018-02-16T10:49:14.217Z,15.03
2018-02-16T10:51:45.024Z,15.53
2018-02-16T10:54:13.672Z,14.40
2018-02-16T10:56:41.605Z,14.63
2018-02-16T10:59:11.187Z,13.93
2018-02-16T11:01:45.826Z,13.23
2018-02-16T11:04:19.313Z,14.70
2018-02-16T11:06:49.866Z,15.13
2018-02-16T11:09:23.271Z,15.57
2018-02-16T11:11:52.851Z,20.17
2018-02-16T11:14:21.118Z,10.63
2018-02-16T11:16:50.620Z,17.63
2018-02-16T11:19:18.298Z,12.07
2018-02-16T11:21:48.678Z,13.67
2018-02-16T11:24:16.206Z,10.97
2018-02-16T11:26:43.731Z,15.20
2018-02-16T11:29:12.233Z,14.07
2018-02-16T11:31:41.636Z,14.05
2018-02-16T11:34:13.267Z,10.13
2018-02-16T11:36:42.769Z,10.43
2018-02-16T11:39:10.421Z,14.07
2018-02-16T11:44:23.259Z,10.07
2018-02-16T11:46:50.998Z,8.00
2018-02-16T11:49:18.555Z,11.57
2018-02-16T11:51:47.256Z,11.33
2018-02-16T11:54:15.007Z,11.53
2018-02-16T11:56:48.106Z,10.60
2018-02-16T11:59:17.514Z,9.55
2018-02-16T12:01:45.045Z,9.10
2018-02-16T12:04:12.740Z,9.00
2018-02-16T12:06:42.456Z,6.00
2018-02-16T12:09:09.969Z,10.77
2018-02-16T12:11:38.987Z,7.33
2018-02-16T12:14:08.107Z,4.90
2018-02-16T12:16:35.698Z,8.37
2018-02-16T12:19:03.386Z,9.93
2018-02-16T12:21:31.384Z,12.32
2018-02-16T12:23:58.912Z,6.85
2018-02-16T12:26:27.714Z,12.50
2018-02-16T12:28:56.993Z,11.73
2018-02-16T12:31:25.190Z,12.07
2018-02-16T12:33:52.768Z,12.53
2018-02-16T12:36:20.294Z,11.27
2018-02-16T12:38:47.900Z,10.50
2018-02-16T12:41:15.426Z,8.70
2018-02-16T12:43:42.977Z,10.18
2018-02-16T12:46:10.534Z,7.90
2018-02-16T12:48:38.083Z,6.40
2018-02-16T12:51:05.611Z,9.17
2018-02-16T12:53:33.156Z,9.70
2018-02-16T12:56:00.691Z,8.90
2018-02-16T12:58:28.267Z,6.85
2018-02-16T13:00:55.819Z,11.03
2018-02-16T13:03:23.346Z,12.10
2018-02-16T13:05:50.903Z,5.65
2018-02-16T13:08:18.423Z,13.73
2018-02-16T13:10:45.980Z,11.90
2018-02-16T13:13:13.501Z,9.57
2018-02-16T13:15:41.054Z,7.63
2018-02-16T13:18:08.583Z,9.52
2018-02-16T13:20:36.158Z,9.10
2018-02-16T13:23:03.690Z,10.03
2018-02-16T13:25:31.243Z,4.83
2018-02-16T13:27:58.767Z,8.33
2018-02-16T13:30:26.344Z,5.43
2018-02-16T13:32:53.875Z,5.93
2018-02-16T13:35:21.399Z,9.07
2018-02-16T13:37:48.953Z,11.48
2018-02-16T13:40:16.478Z,10.80
2018-02-16T13:42:44.031Z,8.70
2018-02-16T13:45:11.558Z,8.67
2018-02-16T13:47:39.838Z,10.65
2018-02-16T13:50:07.364Z,6.90
2018-02-16T13:52:37.314Z,12.83
2018-02-16T13:55:04.842Z,8.77
2018-02-16T13:57:32.394Z,10.23
2018-02-16T13:59:59.918Z,7.70
2018-02-16T14:02:28.474Z,5.75
2018-02-16T14:04:56.003Z,8.10
2018-02-16T14:07:23.525Z,6.77
2018-02-16T14:09:51.081Z,5.03
2018-02-16T14:12:18.607Z,5.77
2018-02-16T14:14:46.154Z,7.75
2018-02-16T14:17:15.752Z,4.83
2018-02-16T14:19:43.489Z,4.67
2018-02-16T14:22:11.014Z,3.93
2018-02-16T14:24:38.569Z,5.67
2018-02-16T14:27:06.446Z,6.87
2018-02-16T14:29:34.101Z,2.83
2018-02-16T14:32:02.557Z,8.30
2018-02-16T14:34:30.278Z,4.93
2018-02-16T14:36:57.859Z,8.07
2018-02-16T14:39:25.408Z,6.07
2018-02-16T14:41:53.024Z,5.00
2018-02-16T14:44:20.611Z,5.60
2018-02-16T14:46:48.266Z,4.43
2018-02-16T14:49:15.891Z,6.37
2018-02-16T14:51:43.447Z,6.53
2018-02-16T14:54:10.973Z,5.73
2018-02-16T14:56:38.524Z,6.80
2018-02-16T14:59:06.129Z,5.50
2018-02-16T15:01:33.946Z,5.23
2018-02-16T15:04:02.483Z,7.17
2018-02-16T15:06:32.248Z,6.55
2018-02-16T15:09:00.311Z,6.47
2018-02-16T15:11:27.836Z,2.87
2018-02-16T15:13:55.392Z,7.83
2018-02-16T15:16:22.910Z,6.75
2018-02-16T15:18:50.462Z,8.03
2018-02-16T15:21:19.849Z,6.55
2018-02-16T15:23:47.550Z,5.40
2018-02-16T15:26:15.076Z,5.77
2018-02-16T15:28:42.631Z,8.90
2018-02-16T15:31:10.253Z,7.67
2018-02-16T15:33:37.836Z,7.67
2018-02-16T15:36:06.555Z,8.07
2018-02-16T15:38:34.087Z,15.32
2018-02-16T15:41:01.631Z,8.10
2018-02-16T15:43:29.168Z,4.93
2018-02-16T15:45:56.721Z,12.07
2018-02-16T15:48:24.247Z,9.20
2018-02-16T15:50:51.844Z,11.07
2018-02-16T15:53:19.403Z,42.07
2018-02-16T15:55:47.076Z,45.07
2018-02-16T15:58:14.608Z,48.15
2018-02-16T16:00:42.592Z,31.03
2018-02-16T16:03:10.937Z,26.17
2018-02-16T16:05:39.063Z,11.50
2018-02-16T16:08:07.137Z,32.80
2018-02-16T16:10:37.192Z,15.30
2018-02-16T16:13:05.168Z,23.77
2018-02-16T16:15:32.725Z,26.63
2018-02-16T16:18:00.320Z,14.07
2018-02-16T16:20:27.850Z,6.47
2018-02-16T16:22:55.431Z,14.05
2018-02-16T16:25:22.951Z,15.77
2018-02-16T16:27:50.507Z,39.37
2018-02-16T16:30:18.112Z,60.83
2018-02-16T16:32:45.676Z,74.20
2018-02-16T16:35:13.238Z,41.50
2018-02-16T16:37:40.766Z,29.40
2018-02-16T16:40:08.368Z,24.37
2018-02-16T16:42:35.903Z,25.87
2018-02-16T16:45:03.475Z,26.23
2018-02-16T16:47:30.994Z,16.93
2018-02-16T16:49:58.577Z,19.03
2018-02-16T16:52:26.130Z,24.20
2018-02-16T16:54:53.711Z,19.53
2018-02-16T16:57:21.235Z,25.53
2018-02-16T16:59:48.762Z,21.27
2018-02-16T17:02:20.488Z,27.48
2018-02-16T17:04:50.237Z,22.27
2018-02-16T17:07:19.596Z,17.23
2018-02-16T17:09:48.195Z,16.35
2018-02-16T17:12:16.866Z,11.87
2018-02-16T17:14:45.124Z,14.33
2018-02-16T17:17:12.802Z,13.47
2018-02-16T17:19:43.475Z,24.00
2018-02-16T17:22:11.239Z,25.17
2018-02-16T17:24:41.212Z,21.50
2018-02-16T17:27:08.856Z,24.73
2018-02-16T17:29:37.059Z,21.63
2018-02-16T17:32:04.619Z,21.97
2018-02-16T17:34:32.415Z,21.60
2018-02-16T17:37:00.578Z,21.63
2018-02-16T17:39:28.250Z,21.63
2018-02-16T17:41:55.776Z,16.73
2018-02-16T17:44:23.354Z,14.97
2018-02-16T17:46:50.881Z,13.07
2018-02-16T17:49:18.831Z,12.70
2018-02-16T17:51:47.438Z,12.50
2018-02-16T17:54:19.747Z,15.13
2018-02-16T17:56:48.153Z,14.10
2018-02-16T17:59:15.691Z,15.67
2018-02-16T18:01:43.518Z,17.63
2018-02-16T18:04:11.173Z,12.30
2018-02-16T18:06:40.523Z,13.20
2018-02-16T18:09:08.677Z,16.80
2018-02-16T18:11:36.454Z,17.10
2018-02-16T18:14:06.626Z,12.60
2018-02-16T18:16:36.102Z,12.77
2018-02-16T18:19:03.746Z,13.90
2018-02-16T18:21:42.927Z,11.27
2018-02-16T18:24:13.035Z,18.40
2018-02-16T18:26:40.814Z,21.05
2018-02-16T18:29:08.400Z,17.60
2018-02-16T18:31:35.928Z,17.10
2018-02-16T18:34:03.504Z,21.80
2018-02-16T18:36:35.983Z,15.43
2018-02-16T18:39:04.027Z,16.77
2018-02-16T18:41:31.596Z,19.47
2018-02-16T18:43:59.179Z,21.50
2018-02-16T18:46:26.736Z,22.33
2018-02-16T18:48:54.442Z,21.50
2018-02-16T18:51:22.443Z,20.20
2018-02-16T18:53:50.005Z,19.00
2018-02-16T18:56:17.763Z,18.27
2018-02-16T18:58:45.351Z,19.95
2018-02-16T19:01:13.079Z,21.20
2018-02-16T19:03:40.903Z,17.30
2018-02-16T19:06:08.483Z,21.40
2018-02-16T19:08:36.125Z,18.23
2018-02-16T19:11:03.856Z,16.20
2018-02-16T19:13:31.410Z,21.47
2018-02-16T19:16:00.760Z,22.15
2018-02-16T19:18:28.343Z,16.53
2018-02-16T19:20:55.868Z,21.40
2018-02-16T19:23:23.420Z,14.53
2018-02-16T19:25:50.951Z,18.30
2018-02-16T19:28:18.522Z,18.77
2018-02-16T19:30:46.092Z,21.83
2018-02-16T19:33:13.655Z,23.77
2018-02-16T19:35:41.381Z,32.93
2018-02-16T19:38:09.032Z,33.00
2018-02-16T19:40:37.050Z,28.57
2018-02-16T19:43:04.635Z,23.57
2018-02-16T19:45:32.194Z,19.07
2018-02-16T19:48:00.200Z,24.50
2018-02-16T19:50:27.770Z,20.33
2018-02-16T19:52:55.311Z,19.53
2018-02-16T19:55:22.896Z,20.12
2018-02-16T19:57:50.434Z,26.83
2018-02-16T20:00:18.401Z,21.87
2018-02-16T20:02:46.956Z,19.03
2018-02-16T20:05:18.575Z,20.30
2018-02-16T20:07:46.613Z,19.83
2018-02-16T20:10:14.863Z,22.27
2018-02-16T20:12:42.968Z,21.57
2018-02-16T20:15:11.320Z,24.87
2018-02-16T20:17:38.876Z,16.40
2018-02-16T20:20:06.466Z,19.00
2018-02-16T20:22:34.323Z,21.30
2018-02-16T20:25:10.374Z,19.33
2018-02-16T20:27:38.254Z,19.83
2018-02-16T20:30:05.809Z,21.07
2018-02-16T20:32:33.476Z,18.63
2018-02-16T20:35:01.238Z,17.30
2018-02-16T20:37:28.896Z,14.40
2018-02-16T20:39:56.435Z,29.12
2018-02-16T20:42:24.015Z,13.93
2018-02-16T20:44:51.666Z,19.20
2018-02-16T20:47:19.195Z,18.73
2018-02-16T20:49:46.774Z,21.05
2018-02-16T20:52:14.864Z,17.33
2018-02-16T20:54:42.948Z,19.47
2018-02-16T20:57:10.807Z,33.65
2018-02-16T20:59:39.861Z,26.60
2018-02-16T21:02:07.586Z,22.27
2018-02-16T21:04:35.119Z,27.37
2018-02-16T21:07:04.290Z,23.50
2018-02-16T21:09:32.268Z,23.17
2018-02-16T21:12:01.917Z,25.97
2018-02-16T21:14:29.737Z,26.17
2018-02-16T21:16:57.843Z,27.15
2018-02-16T21:19:25.450Z,23.00
2018-02-16T21:21:53.003Z,21.90
2018-02-16T21:24:20.623Z,24.37
2018-02-16T21:26:48.180Z,19.13
2018-02-16T21:29:15.711Z,17.20
2018-02-16T21:31:43.392Z,18.70
2018-02-16T21:34:11.886Z,29.37
2018-02-16T21:36:39.543Z,29.13
2018-02-16T21:39:07.141Z,26.87
2018-02-16T21:41:34.670Z,28.30
2018-02-16T21:44:02.222Z,31.13
2018-02-16T21:46:29.748Z,28.05
2018-02-16T21:48:57.329Z,36.90
2018-02-16T21:51:24.850Z,36.10
2018-02-16T21:53:59.093Z,34.42
2018-02-16T21:56:28.079Z,35.00
2018-02-16T21:58:56.274Z,28.93
2018-02-16T22:01:24.712Z,43.13
2018-02-16T22:03:52.415Z,44.90
2018-02-16T22:06:20.484Z,42.28
2018-02-16T22:08:48.299Z,44.67
2018-02-16T22:11:19.046Z,36.33
2018-02-16T22:13:46.824Z,35.08
2018-02-16T22:16:14.378Z,36.57
2018-02-16T22:18:42.295Z,34.87
2018-02-16T22:21:09.935Z,35.37
2018-02-16T22:23:37.927Z,40.93
2018-02-16T22:26:05.534Z,32.60
2018-02-16T22:28:33.742Z,35.70
2018-02-16T22:31:01.320Z,40.83
2018-02-16T22:33:29.088Z,37.65
2018-02-16T22:35:57.140Z,26.60
2018-02-16T22:38:24.748Z,30.75
2018-02-16T22:40:52.298Z,36.33
2018-02-16T22:43:19.875Z,36.03
2018-02-16T22:45:47.430Z,37.57
2018-02-16T22:48:15.024Z,29.33
2018-02-16T22:50:42.682Z,36.40
2018-02-16T22:53:10.260Z,36.45
2018-02-16T22:55:37.811Z,31.97
2018-02-16T22:58:06.367Z,30.67
2018-02-16T23:00:33.994Z,27.83
2018-02-16T23:03:01.519Z,33.00
2018-02-16T23:05:29.177Z,26.93
2018-02-16T23:07:56.839Z,24.67
2018-02-16T23:10:24.403Z,25.05
2018-02-16T23:12:51.957Z,25.60
2018-02-16T23:15:19.530Z,22.57
2018-02-16T23:17:47.063Z,22.08
2018-02-16T23:20:14.767Z,23.87
2018-02-16T23:22:42.504Z,20.62
2018-02-16T23:25:10.165Z,23.20
2018-02-16T23:27:37.696Z,25.07
2018-02-16T23:30:05.243Z,22.73
2018-02-16T23:32:32.948Z,22.10
2018-02-16T23:35:00.502Z,20.02
2018-02-16T23:37:28.164Z,19.70
2018-02-16T23:39:55.848Z,26.97
2018-02-16T23:42:23.512Z,22.60
2018-02-16T23:44:51.024Z,26.63
2018-02-16T23:47:18.608Z,24.10
2018-02-16T23:49:46.226Z,18.27
2018-02-16T23:52:13.766Z,20.57
2018-02-16T23:54:41.435Z,21.70
2018-02-16T23:57:08.975Z,21.30
2018-02-16T23:59:36.570Z,26.67
